createdAt,value
2018-08-06T00:00:27.256Z,1009.70
2018-08-06T00:01:27.318Z,1009.74
2018-08-06T00:02:27.379Z,1009.75
2018-08-06T00:03:27.441Z,1009.75
2018-08-06T00:04:27.502Z,1009.71
2018-08-06T00:05:27.562Z,1009.74
2018-08-06T00:06:27.625Z,1009.73
2018-08-06T00:07:27.686Z,1009.77
2018-08-06T00:08:27.746Z,1009.72
2018-08-06T00:09:27.806Z,1009.70
2018-08-06T00:10:27.868Z,1009.73
2018-08-06T00:11:28.180Z,1009.72
2018-08-06T00:12:27.990Z,1009.68
2018-08-06T00:13:28.051Z,1009.68
2018-08-06T00:14:28.114Z,1009.72
2018-08-06T00:15:28.175Z,1009.68
2018-08-06T00:16:28.234Z,1009.66
2018-08-06T00:17:28.294Z,1009.68
2018-08-06T00:18:28.356Z,1009.67
2018-08-06T00:19:28.417Z,1009.67
2018-08-06T00:20:28.478Z,1009.63
2018-08-06T00:21:28.540Z,1009.67
2018-08-06T00:22:28.599Z,1009.61
2018-08-06T00:23:28.661Z,1009.63
2018-08-06T00:24:28.721Z,1009.62
2018-08-06T00:25:28.782Z,1009.59
2018-08-06T00:26:28.844Z,1009.61
2018-08-06T00:27:28.905Z,1009.61
2018-08-06T00:28:28.966Z,1009.58
2018-08-06T00:29:29.069Z,1009.56
2018-08-06T00:30:29.088Z,1009.59
2018-08-06T00:31:29.148Z,1009.61
2018-08-06T00:32:29.208Z,1009.56
2018-08-06T00:33:29.269Z,1009.60
2018-08-06T00:34:29.331Z,1009.59
2018-08-06T00:35:29.392Z,1009.54
2018-08-06T00:36:29.454Z,1009.53
2018-08-06T00:37:29.514Z,1009.53
2018-08-06T00:38:29.573Z,1009.52
2018-08-06T00:39:29.636Z,1009.51
2018-08-06T00:40:29.696Z,1009.51
2018-08-06T00:41:29.756Z,1009.49
2018-08-06T00:42:29.820Z,1009.51
2018-08-06T00:43:29.878Z,1009.47
2018-08-06T00:44:29.938Z,1009.46
2018-08-06T00:45:30.041Z,1009.45
2018-08-06T00:46:30.062Z,1009.42
2018-08-06T00:47:30.126Z,1009.39
2018-08-06T00:48:30.184Z,1009.38
2018-08-06T00:49:30.243Z,1009.38
2018-08-06T00:50:30.306Z,1009.41
2018-08-06T00:51:30.366Z,1009.41
2018-08-06T00:52:30.425Z,1009.42
2018-08-06T00:53:30.486Z,1009.45
2018-08-06T00:54:30.547Z,1009.44
2018-08-06T00:55:30.610Z,1009.42
2018-08-06T00:56:30.666Z,1009.41
2018-08-06T00:57:30.729Z,1009.39
2018-08-06T00:58:30.789Z,1009.36
2018-08-06T00:59:30.850Z,1009.35
2018-08-06T01:00:30.910Z,1009.32
2018-08-06T01:01:30.973Z,1009.35
2018-08-06T01:02:31.035Z,1009.35
2018-08-06T01:03:31.095Z,1009.38
2018-08-06T01:04:31.153Z,1009.33
2018-08-06T01:05:31.213Z,1009.39
2018-08-06T01:06:31.276Z,1009.37
2018-08-06T01:07:31.336Z,1009.37
2018-08-06T01:08:31.395Z,1009.36
2018-08-06T01:09:31.456Z,1009.29
2018-08-06T01:10:31.517Z,1009.33
2018-08-06T01:11:31.578Z,1009.30
2018-08-06T01:12:31.638Z,1009.23
2018-08-06T01:13:31.700Z,1009.26
2018-08-06T01:14:31.760Z,1009.21
2018-08-06T01:15:31.820Z,1009.21
2018-08-06T01:16:31.881Z,1009.19
2018-08-06T01:17:31.941Z,1009.19
2018-08-06T01:18:32.002Z,1009.18
2018-08-06T01:19:32.064Z,1009.13
2018-08-06T01:20:32.128Z,1009.14
2018-08-06T01:21:32.183Z,1009.09
2018-08-06T01:22:32.244Z,1009.11
2018-08-06T01:23:32.306Z,1009.10
2018-08-06T01:24:32.365Z,1009.11
2018-08-06T01:25:32.428Z,1009.15
2018-08-06T01:26:32.487Z,1009.09
2018-08-06T01:27:32.546Z,1009.10
2018-08-06T01:28:32.607Z,1009.12
2018-08-06T01:29:32.668Z,1009.12
2018-08-06T01:30:32.732Z,1009.07
2018-08-06T01:31:32.790Z,1009.04
2018-08-06T01:32:32.849Z,1009.09
2018-08-06T01:33:32.912Z,1009.07
2018-08-06T01:34:32.972Z,1009.10
2018-08-06T01:35:33.032Z,1009.08
2018-08-06T01:36:33.092Z,1009.08
2018-08-06T01:37:33.157Z,1009.03
2018-08-06T01:38:33.213Z,1009.05
2018-08-06T01:39:33.274Z,1009.04
2018-08-06T01:40:33.334Z,1009.00
2018-08-06T01:41:33.395Z,1009.05
2018-08-06T01:42:33.455Z,1009.04
2018-08-06T01:43:33.518Z,1009.00
2018-08-06T01:44:33.577Z,1009.04
2018-08-06T01:45:33.637Z,1008.98
2018-08-06T01:46:33.698Z,1009.02
2018-08-06T01:47:33.757Z,1009.00
2018-08-06T01:48:33.849Z,1009.00
2018-08-06T01:49:33.879Z,1009.01
2018-08-06T01:50:33.939Z,1009.00
2018-08-06T01:51:33.999Z,1009.02
2018-08-06T01:52:34.058Z,1009.04
2018-08-06T01:53:34.118Z,1008.99
2018-08-06T01:54:34.181Z,1009.01
2018-08-06T01:55:34.241Z,1009.04
2018-08-06T01:56:34.299Z,1009.00
2018-08-06T01:57:34.361Z,1009.02
2018-08-06T01:58:34.421Z,1009.02
2018-08-06T01:59:34.483Z,1008.98
2018-08-06T02:00:34.541Z,1008.98
2018-08-06T02:01:34.602Z,1008.97
2018-08-06T02:02:34.662Z,1008.98
2018-08-06T02:03:34.723Z,1008.96
2018-08-06T02:04:34.782Z,1008.95
2018-08-06T02:05:34.846Z,1008.93
2018-08-06T02:06:34.902Z,1008.98
2018-08-06T02:07:34.963Z,1008.92
2018-08-06T02:08:35.024Z,1008.91
2018-08-06T02:09:35.084Z,1008.94
2018-08-06T02:10:35.146Z,1008.93
2018-08-06T02:11:35.204Z,1008.93
2018-08-06T02:12:35.514Z,1008.93
2018-08-06T02:13:35.326Z,1008.94
2018-08-06T02:14:35.385Z,1008.88
2018-08-06T02:15:35.446Z,1008.93
2018-08-06T02:16:35.507Z,1008.88
2018-08-06T02:17:35.570Z,1008.87
2018-08-06T02:18:35.626Z,1008.87
2018-08-06T02:19:35.686Z,1008.83
2018-08-06T02:20:35.748Z,1008.86
2018-08-06T02:21:35.806Z,1008.87
2018-08-06T02:22:35.866Z,1008.86
2018-08-06T02:23:35.929Z,1008.82
2018-08-06T02:24:35.986Z,1008.81
2018-08-06T02:25:36.047Z,1008.80
2018-08-06T02:26:36.108Z,1008.78
2018-08-06T02:27:36.168Z,1008.80
2018-08-06T02:28:36.227Z,1008.79
2018-08-06T02:29:36.287Z,1008.77
2018-08-06T02:30:36.349Z,1008.74
2018-08-06T02:31:36.410Z,1008.75
2018-08-06T02:32:36.719Z,1008.70
2018-08-06T02:33:36.529Z,1008.69
2018-08-06T02:34:36.590Z,1008.64
2018-08-06T02:35:36.650Z,1008.68
2018-08-06T02:36:36.712Z,1008.66
2018-08-06T02:37:36.770Z,1008.68
2018-08-06T02:38:36.830Z,1008.65
2018-08-06T02:39:36.891Z,1008.65
2018-08-06T02:40:36.951Z,1008.65
2018-08-06T02:41:37.009Z,1008.67
2018-08-06T02:42:37.069Z,1008.68
2018-08-06T02:43:37.129Z,1008.64
2018-08-06T02:44:37.189Z,1008.67
2018-08-06T02:45:37.249Z,1008.67
2018-08-06T02:46:37.310Z,1008.66
2018-08-06T02:47:37.370Z,1008.66
2018-08-06T02:48:37.429Z,1008.70
2018-08-06T02:49:37.489Z,1008.66
2018-08-06T02:50:37.551Z,1008.68
2018-08-06T02:51:37.613Z,1008.63
2018-08-06T02:52:37.685Z,1008.63
2018-08-06T02:53:37.980Z,1008.66
2018-08-06T02:54:37.790Z,1008.66
2018-08-06T02:55:37.851Z,1008.66
2018-08-06T02:56:37.914Z,1008.64
2018-08-06T02:57:37.971Z,1008.66
2018-08-06T02:58:38.030Z,1008.63
2018-08-06T02:59:38.090Z,1008.65
2018-08-06T03:00:38.150Z,1008.63
2018-08-06T03:01:38.211Z,1008.57
2018-08-06T03:02:38.276Z,1008.60
2018-08-06T03:03:38.330Z,1008.60
2018-08-06T03:04:38.390Z,1008.61
2018-08-06T03:05:38.452Z,1008.61
2018-08-06T03:06:38.513Z,1008.60
2018-08-06T03:07:38.570Z,1008.60
2018-08-06T03:08:38.628Z,1008.61
2018-08-06T03:09:38.691Z,1008.61
2018-08-06T03:10:38.751Z,1008.61
2018-08-06T03:11:38.811Z,1008.59
2018-08-06T03:12:38.868Z,1008.55
2018-08-06T03:13:38.929Z,1008.59
2018-08-06T03:14:38.989Z,1008.55
2018-08-06T03:15:39.050Z,1008.56
2018-08-06T03:16:39.108Z,1008.57
2018-08-06T03:17:39.170Z,1008.58
2018-08-06T03:18:39.229Z,1008.59
2018-08-06T03:19:39.289Z,1008.57
2018-08-06T03:20:39.348Z,1008.56
2018-08-06T03:21:39.410Z,1008.52
2018-08-06T03:22:39.471Z,1008.54
2018-08-06T03:23:39.529Z,1008.52
2018-08-06T03:24:39.590Z,1008.54
2018-08-06T03:25:39.648Z,1008.55
2018-08-06T03:26:39.708Z,1008.56
2018-08-06T03:27:39.768Z,1008.54
2018-08-06T03:28:39.828Z,1008.55
2018-08-06T03:29:39.900Z,1008.59
2018-08-06T03:30:39.948Z,1008.60
2018-08-06T03:31:40.012Z,1008.59
2018-08-06T03:32:40.067Z,1008.61
2018-08-06T03:33:40.128Z,1008.60
2018-08-06T03:34:40.187Z,1008.59
2018-08-06T03:35:40.247Z,1008.60
2018-08-06T03:36:40.306Z,1008.56
2018-08-06T03:37:40.369Z,1008.59
2018-08-06T03:38:40.676Z,1008.59
2018-08-06T03:39:40.487Z,1008.57
2018-08-06T03:40:40.546Z,1008.55
2018-08-06T03:41:40.605Z,1008.56
2018-08-06T03:42:40.665Z,1008.56
2018-08-06T03:43:40.726Z,1008.57
2018-08-06T03:44:40.786Z,1008.54
2018-08-06T03:45:40.845Z,1008.53
2018-08-06T03:46:40.904Z,1008.52
2018-08-06T03:47:40.964Z,1008.59
2018-08-06T03:48:41.024Z,1008.60
2018-08-06T03:49:41.084Z,1008.57
2018-08-06T03:50:41.143Z,1008.56
2018-08-06T03:51:41.205Z,1008.55
2018-08-06T03:52:41.303Z,1008.57
2018-08-06T03:53:41.324Z,1008.58
2018-08-06T03:54:41.382Z,1008.57
2018-08-06T03:55:41.442Z,1008.53
2018-08-06T03:56:41.560Z,1008.53
2018-08-06T03:57:41.562Z,1008.56
2018-08-06T03:58:41.872Z,1008.54
2018-08-06T03:59:41.681Z,1008.57
2018-08-06T04:00:41.774Z,1008.56
2018-08-06T04:01:41.839Z,1008.57
2018-08-06T04:02:41.915Z,1008.59
2018-08-06T04:03:41.994Z,1008.58
2018-08-06T04:04:41.979Z,1008.57
2018-08-06T04:05:42.039Z,1008.60
2018-08-06T04:06:42.146Z,1008.61
2018-08-06T04:07:42.182Z,1008.61
2018-08-06T04:08:42.251Z,1008.59
2018-08-06T04:09:42.282Z,1008.61
2018-08-06T04:10:42.337Z,1008.61
2018-08-06T04:11:42.398Z,1008.61
2018-08-06T04:12:42.459Z,1008.61
2018-08-06T04:13:42.516Z,1008.60
2018-08-06T04:14:42.575Z,1008.62
2018-08-06T04:15:42.635Z,1008.62
2018-08-06T04:16:42.694Z,1008.59
2018-08-06T04:17:42.754Z,1008.59
2018-08-06T04:18:42.814Z,1008.60
2018-08-06T04:19:42.929Z,1008.60
2018-08-06T04:20:42.932Z,1008.56
2018-08-06T04:21:42.993Z,1008.58
2018-08-06T04:22:43.052Z,1008.58
2018-08-06T04:23:43.113Z,1008.57
2018-08-06T04:24:43.174Z,1008.60
2018-08-06T04:25:43.231Z,1008.62
2018-08-06T04:26:43.291Z,1008.61
2018-08-06T04:27:43.351Z,1008.64
2018-08-06T04:28:43.411Z,1008.63
2018-08-06T04:29:43.470Z,1008.64
2018-08-06T04:30:43.529Z,1008.65
2018-08-06T04:31:43.589Z,1008.64
2018-08-06T04:32:43.662Z,1008.64
2018-08-06T04:33:43.709Z,1008.65
2018-08-06T04:34:43.769Z,1008.60
2018-08-06T04:35:43.828Z,1008.62
2018-08-06T04:36:43.886Z,1008.61
2018-08-06T04:37:43.946Z,1008.66
2018-08-06T04:38:44.007Z,1008.65
2018-08-06T04:39:44.067Z,1008.67
2018-08-06T04:40:44.730Z,1008.66
2018-08-06T04:41:44.185Z,1008.71
2018-08-06T04:42:44.245Z,1008.67
2018-08-06T04:43:44.305Z,1008.65
2018-08-06T04:44:44.364Z,1008.68
2018-08-06T04:45:44.428Z,1008.68
2018-08-06T04:46:44.486Z,1008.69
2018-08-06T04:47:44.550Z,1008.68
2018-08-06T04:48:44.602Z,1008.67
2018-08-06T04:49:44.663Z,1008.64
2018-08-06T04:50:44.721Z,1008.62
2018-08-06T04:51:44.781Z,1008.66
2018-08-06T04:52:44.841Z,1008.63
2018-08-06T04:53:44.902Z,1008.62
2018-08-06T04:54:44.963Z,1008.66
2018-08-06T04:55:45.020Z,1008.68
2018-08-06T04:56:45.078Z,1008.67
2018-08-06T04:57:45.139Z,1008.64
2018-08-06T04:58:45.198Z,1008.66
2018-08-06T04:59:45.331Z,1008.62
2018-08-06T05:00:45.317Z,1008.60
2018-08-06T05:01:45.376Z,1008.66
2018-08-06T05:02:45.441Z,1008.64
2018-08-06T05:03:45.498Z,1008.61
2018-08-06T05:04:45.555Z,1008.60
2018-08-06T05:05:45.615Z,1008.61
2018-08-06T05:06:45.675Z,1008.60
2018-08-06T05:07:45.735Z,1008.61
2018-08-06T05:08:45.795Z,1008.58
2018-08-06T05:09:45.853Z,1008.61
2018-08-06T05:10:45.916Z,1008.61
2018-08-06T05:11:45.973Z,1008.63
2018-08-06T05:12:46.031Z,1008.62
2018-08-06T05:13:46.211Z,1008.63
2018-08-06T05:14:46.151Z,1008.65
2018-08-06T05:15:46.211Z,1008.63
2018-08-06T05:16:46.280Z,1008.61
2018-08-06T05:17:46.336Z,1008.63
2018-08-06T05:18:46.393Z,1008.65
2018-08-06T05:19:46.453Z,1008.69
2018-08-06T05:20:46.509Z,1008.69
2018-08-06T05:21:46.591Z,1008.74
2018-08-06T05:22:46.629Z,1008.71
2018-08-06T05:23:46.688Z,1008.74
2018-08-06T05:24:46.777Z,1008.73
2018-08-06T05:25:46.807Z,1008.71
2018-08-06T05:26:46.866Z,1008.72
2018-08-06T05:27:46.930Z,1008.75
2018-08-06T05:28:46.985Z,1008.75
2018-08-06T05:29:47.045Z,1008.71
2018-08-06T05:30:47.125Z,1008.72
2018-08-06T05:31:47.593Z,1008.71
2018-08-06T05:32:47.226Z,1008.73
2018-08-06T05:33:47.283Z,1008.76
2018-08-06T05:34:47.347Z,1008.77
2018-08-06T05:35:47.404Z,1008.75
2018-08-06T05:36:47.464Z,1008.74
2018-08-06T05:37:47.524Z,1008.77
2018-08-06T05:38:47.587Z,1008.74
2018-08-06T05:39:47.643Z,1008.77
2018-08-06T05:40:47.704Z,1008.75
2018-08-06T05:41:47.763Z,1008.72
2018-08-06T05:42:47.824Z,1008.72
2018-08-06T05:43:47.884Z,1008.71
2018-08-06T05:44:47.943Z,1008.72
2018-08-06T05:45:48.003Z,1008.73
2018-08-06T05:46:48.063Z,1008.71
2018-08-06T05:47:48.122Z,1008.67
2018-08-06T05:48:48.182Z,1008.67
2018-08-06T05:49:48.242Z,1008.69
2018-08-06T05:50:48.303Z,1008.67
2018-08-06T05:51:48.368Z,1008.67
2018-08-06T05:52:48.422Z,1008.64
2018-08-06T05:53:48.482Z,1008.67
2018-08-06T05:54:48.543Z,1008.66
2018-08-06T05:55:48.603Z,1008.67
2018-08-06T05:56:48.662Z,1008.67
2018-08-06T05:57:48.724Z,1008.67
2018-08-06T05:58:48.784Z,1008.68
2018-08-06T05:59:48.843Z,1008.67
2018-08-06T06:00:48.903Z,1008.70
2018-08-06T06:01:49.523Z,1008.70
2018-08-06T06:02:49.546Z,1008.75
2018-08-06T06:03:49.089Z,1008.70
2018-08-06T06:04:49.147Z,1008.70
2018-08-06T06:05:49.210Z,1008.76
2018-08-06T06:06:49.266Z,1008.76
2018-08-06T06:07:49.325Z,1008.74
2018-08-06T06:08:49.384Z,1008.76
2018-08-06T06:09:49.445Z,1008.75
2018-08-06T06:10:49.504Z,1008.74
2018-08-06T06:11:49.567Z,1008.73
2018-08-06T06:12:49.626Z,1008.71
2018-08-06T06:13:49.686Z,1008.72
2018-08-06T06:14:49.746Z,1008.67
2018-08-06T06:15:50.502Z,1008.71
2018-08-06T06:16:49.867Z,1008.67
2018-08-06T06:17:49.928Z,1008.70
2018-08-06T06:18:49.989Z,1008.70
2018-08-06T06:19:50.049Z,1008.73
2018-08-06T06:20:50.111Z,1008.68
2018-08-06T06:21:50.171Z,1008.68
2018-08-06T06:22:50.231Z,1008.70
2018-08-06T06:23:50.295Z,1008.66
2018-08-06T06:24:50.353Z,1008.67
2018-08-06T06:25:50.447Z,1008.65
2018-08-06T06:26:50.473Z,1008.60
2018-08-06T06:28:50.595Z,1008.62
2018-08-06T06:29:50.656Z,1008.59
2018-08-06T06:30:50.717Z,1008.58
2018-08-06T06:31:50.778Z,1008.57
2018-08-06T06:32:50.839Z,1008.57
2018-08-06T06:33:50.899Z,1008.57
2018-08-06T06:34:50.988Z,1008.55
2018-08-06T06:35:51.021Z,1008.53
2018-08-06T06:36:51.082Z,1008.50
2018-08-06T06:37:51.144Z,1008.47
2018-08-06T06:38:51.205Z,1008.46
2018-08-06T06:39:51.267Z,1008.48
2018-08-06T06:40:51.326Z,1008.48
2018-08-06T06:41:51.512Z,1008.49
2018-08-06T06:42:51.449Z,1008.47
2018-08-06T06:43:51.512Z,1008.44
2018-08-06T06:44:51.572Z,1008.46
2018-08-06T06:45:51.635Z,1008.47
2018-08-06T06:46:51.696Z,1008.47
2018-08-06T06:47:51.757Z,1008.51
2018-08-06T06:48:51.834Z,1008.45
2018-08-06T06:49:51.881Z,1008.46
2018-08-06T06:50:51.941Z,1008.41
2018-08-06T06:51:52.004Z,1008.41
2018-08-06T06:52:52.065Z,1008.39
2018-08-06T06:53:52.128Z,1008.39
2018-08-06T06:54:52.188Z,1008.38
2018-08-06T06:55:52.251Z,1008.35
2018-08-06T06:56:52.311Z,1008.33
2018-08-06T06:57:52.373Z,1008.31
2018-08-06T06:58:52.435Z,1008.37
2018-08-06T06:59:52.514Z,1008.32
2018-08-06T07:00:52.560Z,1008.34
2018-08-06T07:01:52.620Z,1008.29
2018-08-06T07:02:52.683Z,1008.29
2018-08-06T07:03:52.746Z,1008.32
2018-08-06T07:04:52.813Z,1008.33
2018-08-06T07:05:52.868Z,1008.29
2018-08-06T07:06:52.940Z,1008.28
2018-08-06T07:07:52.993Z,1008.24
2018-08-06T07:08:53.055Z,1008.29
2018-08-06T07:09:53.115Z,1008.25
2018-08-06T07:10:53.179Z,1008.26
2018-08-06T07:11:53.604Z,1008.29
2018-08-06T07:12:53.304Z,1008.24
2018-08-06T07:13:53.483Z,1008.26
2018-08-06T07:14:53.986Z,1008.23
2018-08-06T07:15:53.491Z,1008.21
2018-08-06T07:16:53.558Z,1008.22
2018-08-06T07:17:53.615Z,1008.21
2018-08-06T07:18:53.679Z,1008.19
2018-08-06T07:19:53.743Z,1008.15
2018-08-06T07:20:53.803Z,1008.20
2018-08-06T07:21:53.864Z,1008.17
2018-08-06T07:22:53.927Z,1008.17
2018-08-06T07:23:53.992Z,1008.14
2018-08-06T07:24:54.053Z,1008.16
2018-08-06T07:25:54.121Z,1008.14
2018-08-06T07:26:54.183Z,1008.14
2018-08-06T07:27:54.245Z,1008.14
2018-08-06T07:28:54.307Z,1008.10
2018-08-06T07:29:54.369Z,1008.11
2018-08-06T07:30:54.428Z,1008.07
2018-08-06T07:31:54.491Z,1008.13
2018-08-06T07:32:54.553Z,1008.04
2018-08-06T07:33:54.617Z,1008.07
2018-08-06T07:34:54.680Z,1008.01
2018-08-06T07:35:54.744Z,1008.02
2018-08-06T07:36:54.804Z,1007.98
2018-08-06T07:37:54.867Z,1007.95
2018-08-06T07:38:54.930Z,1007.96
2018-08-06T07:39:54.994Z,1007.98
2018-08-06T07:40:55.095Z,1007.94
2018-08-06T07:41:55.119Z,1007.94
2018-08-06T07:42:55.185Z,1007.90
2018-08-06T07:43:55.246Z,1007.91
2018-08-06T07:44:55.308Z,1007.87
2018-08-06T07:45:55.901Z,1007.90
2018-08-06T07:46:56.050Z,1007.87
2018-08-06T07:47:55.512Z,1007.84
2018-08-06T07:48:56.610Z,1007.82
2018-08-06T07:49:56.212Z,1007.79
2018-08-06T07:50:56.489Z,1007.79
2018-08-06T07:51:56.340Z,1007.74
2018-08-06T07:52:56.894Z,1007.71
2018-08-06T07:53:55.877Z,1007.74
2018-08-06T07:54:55.940Z,1007.72
2018-08-06T07:55:56.155Z,1007.70
2018-08-06T07:56:56.067Z,1007.71
2018-08-06T07:57:56.131Z,1007.71
2018-08-06T07:58:56.194Z,1007.71
2018-08-06T07:59:56.258Z,1007.72
2018-08-06T08:00:56.354Z,1007.69
2018-08-06T08:01:56.388Z,1007.69
2018-08-06T08:02:56.448Z,1007.67
2018-08-06T08:03:56.512Z,1007.66
2018-08-06T08:04:56.575Z,1007.62
2018-08-06T08:05:56.640Z,1007.63
2018-08-06T08:06:57.343Z,1007.61
2018-08-06T08:07:57.324Z,1007.62
2018-08-06T08:08:57.441Z,1007.63
2018-08-06T08:09:57.631Z,1007.59
2018-08-06T08:10:56.957Z,1007.59
2018-08-06T08:11:57.026Z,1007.58
2018-08-06T08:12:57.085Z,1007.57
2018-08-06T08:13:57.148Z,1007.59
2018-08-06T08:14:57.213Z,1007.57
2018-08-06T08:15:57.278Z,1007.57
2018-08-06T08:16:57.343Z,1007.57
2018-08-06T08:17:57.404Z,1007.59
2018-08-06T08:18:57.472Z,1007.56
2018-08-06T08:19:57.607Z,1007.58
2018-08-06T08:20:57.718Z,1007.51
2018-08-06T08:21:57.660Z,1007.51
2018-08-06T08:22:57.725Z,1007.48
2018-08-06T08:23:57.792Z,1007.51
2018-08-06T08:24:57.855Z,1007.50
2018-08-06T08:25:57.943Z,1007.47
2018-08-06T08:26:57.982Z,1007.47
2018-08-06T08:27:58.046Z,1007.49
2018-08-06T08:28:58.699Z,1007.47
2018-08-06T08:29:58.175Z,1007.42
2018-08-06T08:30:58.240Z,1007.42
2018-08-06T08:31:58.305Z,1007.44
2018-08-06T08:32:58.369Z,1007.44
2018-08-06T08:33:59.080Z,1007.42
2018-08-06T08:34:58.498Z,1007.42
2018-08-06T08:35:58.582Z,1007.40
2018-08-06T08:36:58.626Z,1007.38
2018-08-06T08:37:58.692Z,1007.38
2018-08-06T08:38:58.757Z,1007.35
2018-08-06T08:39:58.821Z,1007.34
2018-08-06T08:40:58.888Z,1007.34
2018-08-06T08:41:58.950Z,1007.31
2018-08-06T08:42:59.015Z,1007.34
2018-08-06T08:43:59.080Z,1007.25
2018-08-06T08:44:59.145Z,1007.25
2018-08-06T08:45:59.209Z,1007.25
2018-08-06T08:46:59.274Z,1007.20
2018-08-06T08:47:59.340Z,1007.24
2018-08-06T08:48:59.408Z,1007.19
2018-08-06T08:49:59.469Z,1007.16
2018-08-06T08:50:59.534Z,1007.12
2018-08-06T08:51:59.599Z,1007.09
2018-08-06T08:52:59.672Z,1007.15
2018-08-06T08:54:00.047Z,1007.12
2018-08-06T08:54:59.794Z,1007.11
2018-08-06T08:55:59.859Z,1007.10
2018-08-06T08:56:59.924Z,1007.06
2018-08-06T08:57:59.989Z,1007.05
2018-08-06T08:59:00.120Z,1007.05
2018-08-06T09:00:00.129Z,1007.03
2018-08-06T09:01:00.220Z,1007.02
2018-08-06T09:02:00.253Z,1007.02
2018-08-06T09:03:00.317Z,1006.99
2018-08-06T09:04:00.386Z,1006.98
2018-08-06T09:05:00.449Z,1007.04
2018-08-06T09:06:00.512Z,1006.96
2018-08-06T09:07:00.579Z,1006.99
2018-08-06T09:08:00.642Z,1007.00
2018-08-06T09:09:00.713Z,1006.97
2018-08-06T09:10:00.773Z,1006.94
2018-08-06T09:11:00.839Z,1006.93
2018-08-06T09:12:00.909Z,1006.92
2018-08-06T09:13:00.969Z,1006.90
2018-08-06T09:14:01.077Z,1006.92
2018-08-06T09:15:01.103Z,1006.87
2018-08-06T09:16:01.168Z,1006.88
2018-08-06T09:17:01.231Z,1006.91
2018-08-06T09:18:01.300Z,1006.87
2018-08-06T09:19:01.365Z,1006.87
2018-08-06T09:20:01.430Z,1006.84
2018-08-06T09:21:01.494Z,1006.87
2018-08-06T09:22:01.561Z,1006.88
2018-08-06T09:23:01.634Z,1006.81
2018-08-06T09:24:01.693Z,1006.76
2018-08-06T09:25:01.759Z,1006.79
2018-08-06T09:26:01.824Z,1006.78
2018-08-06T09:27:01.891Z,1006.73
2018-08-06T09:28:01.957Z,1006.73
2018-08-06T09:29:02.021Z,1006.73
2018-08-06T09:30:02.092Z,1006.72
2018-08-06T09:31:02.156Z,1006.74
2018-08-06T09:32:02.220Z,1006.73
2018-08-06T09:33:02.285Z,1006.71
2018-08-06T09:34:02.401Z,1006.72
2018-08-06T09:35:02.417Z,1006.74
2018-08-06T09:36:02.483Z,1006.77
2018-08-06T09:37:02.551Z,1006.75
2018-08-06T09:38:02.617Z,1006.73
2018-08-06T09:39:02.684Z,1006.67
2018-08-06T09:40:02.756Z,1006.69
2018-08-06T09:41:02.816Z,1006.65
2018-08-06T09:42:02.882Z,1006.64
2018-08-06T09:43:02.948Z,1006.60
2018-08-06T09:44:03.015Z,1006.57
2018-08-06T09:45:03.081Z,1006.57
2018-08-06T09:46:03.149Z,1006.53
2018-08-06T09:47:03.557Z,1006.53
2018-08-06T09:48:03.281Z,1006.56
2018-08-06T09:49:03.348Z,1006.51
2018-08-06T09:50:03.414Z,1006.52
2018-08-06T09:51:03.481Z,1006.46
2018-08-06T09:52:04.242Z,1006.46
2018-08-06T09:53:03.614Z,1006.47
2018-08-06T09:54:03.681Z,1006.48
2018-08-06T09:55:03.752Z,1006.39
2018-08-06T09:56:03.816Z,1006.42
2018-08-06T09:57:04.286Z,1006.35
2018-08-06T09:58:03.950Z,1006.35
2018-08-06T09:59:04.022Z,1006.33
2018-08-06T10:00:04.083Z,1006.31
2018-08-06T10:01:04.150Z,1006.31
2018-08-06T10:02:04.581Z,1006.26
2018-08-06T10:03:04.284Z,1006.26
2018-08-06T10:04:04.353Z,1006.23
2018-08-06T10:05:04.418Z,1006.22
2018-08-06T10:06:04.562Z,1006.16
2018-08-06T10:07:04.557Z,1006.16
2018-08-06T10:08:04.620Z,1006.17
2018-08-06T10:09:04.696Z,1006.12
2018-08-06T10:10:04.754Z,1006.11
2018-08-06T10:11:04.842Z,1006.09
2018-08-06T10:12:04.898Z,1006.09
2018-08-06T10:13:04.955Z,1006.08
2018-08-06T10:14:05.441Z,1006.11
2018-08-06T10:15:05.736Z,1006.01
2018-08-06T10:16:05.689Z,1006.03
2018-08-06T10:17:05.710Z,1006.00
2018-08-06T10:18:05.818Z,1005.95
2018-08-06T10:19:05.783Z,1005.94
2018-08-06T10:20:05.429Z,1005.95
2018-08-06T10:21:05.496Z,1006.01
2018-08-06T10:22:05.565Z,1006.01
2018-08-06T10:23:05.633Z,1006.03
2018-08-06T10:24:05.702Z,1006.15
2018-08-06T10:25:05.771Z,1006.41
2018-08-06T10:26:05.837Z,1006.75
2018-08-06T10:27:05.908Z,1006.80
2018-08-06T10:28:05.977Z,1006.77
2018-08-06T10:29:06.047Z,1006.78
2018-08-06T10:30:06.165Z,1006.78
2018-08-06T10:31:06.188Z,1006.80
2018-08-06T10:32:06.257Z,1006.81
2018-08-06T10:33:06.328Z,1006.79
2018-08-06T10:34:06.398Z,1006.79
2018-08-06T10:35:06.469Z,1006.77
2018-08-06T10:36:06.597Z,1006.82
2018-08-06T10:37:07.613Z,1006.84
2018-08-06T10:38:06.684Z,1006.91
2018-08-06T10:39:07.291Z,1006.87
2018-08-06T10:40:06.828Z,1006.88
2018-08-06T10:41:06.900Z,1006.89
2018-08-06T10:42:06.973Z,1006.91
2018-08-06T10:43:07.047Z,1006.91
2018-08-06T10:44:07.120Z,1006.87
2018-08-06T10:45:07.193Z,1006.85
2018-08-06T10:46:07.267Z,1006.85
2018-08-06T10:47:07.390Z,1006.88
2018-08-06T10:48:07.415Z,1006.90
2018-08-06T10:49:08.138Z,1006.92
2018-08-06T10:50:07.562Z,1006.92
2018-08-06T10:51:07.637Z,1006.96
2018-08-06T10:52:07.711Z,1006.91
2018-08-06T10:53:07.787Z,1006.88
2018-08-06T10:54:07.862Z,1006.90
2018-08-06T10:55:07.936Z,1006.89
2018-08-06T10:56:08.013Z,1006.85
2018-08-06T10:57:08.089Z,1006.84
2018-08-06T10:58:08.161Z,1006.86
2018-08-06T10:59:08.237Z,1006.81
2018-08-06T11:00:08.314Z,1006.83
2018-08-06T11:01:08.388Z,1006.75
2018-08-06T11:02:08.463Z,1006.76
2018-08-06T11:03:08.540Z,1006.80
2018-08-06T11:04:08.619Z,1006.75
2018-08-06T11:05:08.691Z,1006.75
2018-08-06T11:06:08.767Z,1006.67
2018-08-06T11:07:08.843Z,1006.73
2018-08-06T11:08:08.922Z,1006.73
2018-08-06T11:09:08.995Z,1006.65
2018-08-06T11:10:09.071Z,1006.67
2018-08-06T11:11:09.149Z,1006.66
2018-08-06T11:12:09.224Z,1006.67
2018-08-06T11:13:09.299Z,1006.64
2018-08-06T11:14:09.458Z,1006.64
2018-08-06T11:15:09.450Z,1006.60
2018-08-06T11:16:09.526Z,1006.63
2018-08-06T11:17:09.601Z,1006.58
2018-08-06T11:18:09.678Z,1006.53
2018-08-06T11:19:09.753Z,1006.56
2018-08-06T11:20:09.829Z,1006.50
2018-08-06T11:21:09.904Z,1006.45
2018-08-06T11:22:09.981Z,1006.44
2018-08-06T11:23:10.058Z,1006.39
2018-08-06T11:24:10.133Z,1006.35
2018-08-06T11:25:10.208Z,1006.32
2018-08-06T11:26:10.288Z,1006.30
2018-08-06T11:27:10.363Z,1006.29
2018-08-06T11:28:10.448Z,1006.24
2018-08-06T11:29:10.514Z,1006.21
2018-08-06T11:30:10.591Z,1006.17
2018-08-06T11:31:10.668Z,1006.12
2018-08-06T11:32:10.745Z,1006.10
2018-08-06T11:33:10.821Z,1006.04
2018-08-06T11:34:10.898Z,1006.04
2018-08-06T11:35:10.977Z,1006.01
2018-08-06T11:36:11.053Z,1005.98
2018-08-06T11:37:11.129Z,1005.95
2018-08-06T11:38:11.213Z,1005.99
2018-08-06T11:39:11.285Z,1005.92
2018-08-06T11:40:11.364Z,1005.85
2018-08-06T11:41:11.439Z,1005.88
2018-08-06T11:42:11.516Z,1005.83
2018-08-06T11:43:11.592Z,1005.81
2018-08-06T11:44:11.670Z,1005.81
2018-08-06T11:45:11.752Z,1005.79
2018-08-06T11:46:11.825Z,1005.80
2018-08-06T11:47:11.901Z,1005.79
2018-08-06T11:48:11.980Z,1005.81
2018-08-06T11:49:12.057Z,1005.72
2018-08-06T11:50:12.133Z,1005.76
2018-08-06T11:51:12.210Z,1005.72
2018-08-06T11:52:12.287Z,1005.82
2018-08-06T11:53:12.366Z,1005.78
2018-08-06T11:54:12.441Z,1005.83
2018-08-06T11:55:12.518Z,1005.93
2018-08-06T11:56:12.599Z,1005.40
2018-08-06T11:57:12.674Z,1005.93
2018-08-06T11:58:12.750Z,1006.05
2018-08-06T11:59:12.828Z,1005.81
2018-08-06T12:00:12.903Z,1006.11
2018-08-06T12:01:13.018Z,1006.10
2018-08-06T12:02:13.056Z,1005.62
2018-08-06T12:03:13.134Z,1006.00
2018-08-06T12:04:13.212Z,1006.26
2018-08-06T12:05:13.287Z,1006.32
2018-08-06T12:06:13.363Z,1006.29
2018-08-06T12:07:13.440Z,1006.20